createdAt,value
2023-03-28T00:01:44.198Z,0.50
2023-03-28T00:06:44.932Z,0.30
2023-03-28T00:11:45.628Z,0.70
2023-03-28T00:16:46.334Z,0.60
2023-03-28T00:21:47.071Z,0.60
2023-03-28T00:26:47.820Z,1.70
2023-03-28T00:31:48.584Z,0.90
2023-03-28T00:36:49.245Z,0.80
2023-03-28T00:41:56.977Z,0.70
2023-03-28T00:46:50.750Z,1.10
2023-03-28T00:51:51.460Z,1.20
2023-03-28T00:56:52.271Z,2.20
2023-03-28T01:01:53.029Z,3.90
2023-03-28T01:06:53.677Z,5.80
2023-03-28T01:11:54.376Z,1.00
2023-03-28T01:16:55.134Z,1.10
2023-03-28T01:21:55.810Z,1.20
2023-03-28T01:26:56.506Z,1.20
2023-03-28T01:31:57.267Z,1.10
2023-03-28T01:36:57.949Z,1.20
2023-03-28T01:41:58.658Z,1.00
2023-03-28T01:46:59.380Z,0.90
2023-03-28T01:52:00.116Z,1.00
2023-03-28T01:57:00.942Z,0.80
2023-03-28T02:02:01.312Z,1.00
2023-03-28T02:07:02.039Z,1.00
2023-03-28T02:12:02.688Z,1.10
2023-03-28T02:17:03.401Z,1.00
2023-03-28T02:22:04.127Z,1.00
2023-03-28T02:27:04.808Z,1.20
2023-03-28T02:32:05.529Z,1.10
2023-03-28T02:37:06.249Z,1.20
2023-03-28T02:42:06.926Z,1.20
2023-03-28T02:47:07.630Z,0.90
2023-03-28T02:52:08.368Z,1.10
2023-03-28T02:57:09.077Z,1.10
2023-03-28T03:02:09.832Z,1.00
2023-03-28T03:07:10.585Z,1.40
2023-03-28T03:12:11.272Z,1.80
2023-03-28T03:17:11.971Z,2.30
2023-03-28T03:22:20.814Z,1.20
2023-03-28T03:27:14.272Z,1.20
2023-03-28T03:32:13.961Z,1.50
2023-03-28T03:37:14.673Z,1.20
2023-03-28T03:42:15.405Z,1.40
2023-03-28T03:47:16.087Z,1.50
2023-03-28T03:52:16.804Z,1.30
2023-03-28T03:57:17.600Z,1.50
2023-03-28T04:02:18.317Z,1.40
2023-03-28T04:07:19.001Z,1.70
2023-03-28T04:12:19.721Z,1.90
2023-03-28T04:17:20.474Z,1.80
2023-03-28T04:22:21.101Z,1.90
2023-03-28T04:27:21.818Z,1.80
2023-03-28T04:32:22.495Z,1.80
2023-03-28T04:37:23.183Z,1.90
2023-03-28T04:42:23.811Z,1.60
2023-03-28T04:47:24.545Z,2.00
2023-03-28T04:52:25.178Z,1.70
2023-03-28T04:57:25.901Z,2.50
2023-03-28T05:02:26.652Z,2.10
2023-03-28T05:07:27.389Z,1.90
2023-03-28T05:12:28.048Z,1.60
2023-03-28T05:17:28.905Z,1.80
2023-03-28T05:22:29.526Z,1.40
2023-03-28T05:27:30.175Z,1.60
2023-03-28T05:32:30.952Z,1.60
2023-03-28T05:37:31.569Z,1.70
2023-03-28T05:42:32.227Z,1.60
2023-03-28T05:47:32.986Z,1.70
2023-03-28T05:52:33.671Z,1.90
2023-03-28T05:57:34.327Z,2.00
2023-03-28T06:02:35.021Z,2.70
2023-03-28T06:07:42.054Z,2.00
2023-03-28T06:12:37.168Z,1.60
2023-03-28T06:17:36.929Z,2.00
2023-03-28T06:22:37.549Z,1.80
2023-03-28T06:27:38.203Z,1.80
2023-03-28T06:32:39.053Z,1.90
2023-03-28T06:37:39.690Z,2.10
2023-03-28T06:42:47.319Z,1.70
2023-03-28T06:47:40.999Z,2.40
2023-03-28T06:52:41.658Z,1.60
2023-03-28T06:57:42.288Z,1.50
2023-03-28T07:02:43.162Z,1.90
2023-03-28T07:07:43.849Z,1.50
2023-03-28T07:12:44.479Z,1.70
2023-03-28T07:17:45.184Z,1.50
2023-03-28T07:22:45.816Z,1.80
2023-03-28T07:27:46.438Z,1.60
2023-03-28T07:32:54.972Z,2.10
2023-03-28T07:37:48.662Z,2.60
2023-03-28T07:42:48.306Z,1.90
2023-03-28T07:47:49.012Z,1.80
2023-03-28T07:52:49.654Z,1.70
2023-03-28T07:57:50.314Z,1.60
2023-03-28T08:02:51.022Z,1.30
2023-03-28T08:07:51.653Z,2.00
2023-03-28T08:12:52.325Z,1.60
2023-03-28T08:17:53.035Z,2.00
2023-03-28T08:22:53.657Z,2.30
2023-03-28T08:27:54.314Z,1.40
2023-03-28T08:32:55.017Z,1.50
2023-03-28T08:37:55.669Z,1.20
2023-03-28T08:42:56.294Z,0.80
2023-03-28T08:47:57.025Z,0.90
2023-03-28T08:52:57.681Z,1.10
2023-03-28T08:57:58.309Z,0.90
2023-03-28T09:02:59.112Z,1.40
2023-03-28T09:07:59.899Z,0.90
2023-03-28T09:13:00.586Z,0.80
2023-03-28T09:18:01.238Z,1.00
2023-03-28T09:23:01.875Z,1.00
2023-03-28T09:28:02.540Z,0.90
2023-03-28T09:33:03.220Z,0.90
2023-03-28T09:38:03.854Z,1.00
2023-03-28T09:43:04.528Z,1.00
2023-03-28T09:48:05.376Z,1.00
2023-03-28T09:53:06.030Z,2.50
2023-03-28T09:58:06.748Z,1.30
2023-03-28T10:03:07.426Z,1.00
2023-03-28T10:08:08.034Z,1.00
2023-03-28T10:13:08.669Z,1.00
2023-03-28T10:18:09.344Z,1.10
2023-03-28T10:23:09.979Z,0.80
2023-03-28T10:28:10.671Z,1.10
2023-03-28T10:33:11.289Z,1.00
2023-03-28T10:38:11.936Z,0.90
2023-03-28T10:43:12.647Z,0.80
2023-03-28T10:48:13.251Z,0.80
2023-03-28T10:53:13.904Z,0.80
2023-03-28T10:58:14.627Z,0.90
2023-03-28T11:03:15.298Z,1.00
2023-03-28T11:08:16.016Z,0.90
2023-03-28T11:13:16.733Z,0.90
2023-03-28T11:18:17.326Z,0.90
2023-03-28T11:23:17.983Z,0.80
2023-03-28T11:28:18.637Z,0.80
2023-03-28T11:33:19.310Z,0.80
2023-03-28T11:38:19.949Z,0.80
2023-03-28T11:43:20.614Z,1.10
2023-03-28T11:48:21.304Z,0.90
2023-03-28T11:53:21.926Z,0.70
2023-03-28T11:58:22.578Z,1.00
2023-03-28T12:03:23.359Z,1.00
2023-03-28T12:08:24.107Z,1.00
2023-03-28T12:13:24.732Z,0.70
2023-03-28T12:18:25.389Z,3.00
2023-03-28T12:23:26.036Z,0.80
2023-03-28T12:28:26.715Z,1.20
2023-03-28T12:33:27.381Z,0.90
2023-03-28T12:38:28.040Z,1.00
2023-03-28T12:43:35.716Z,0.90
2023-03-28T12:48:29.340Z,0.90
2023-03-28T12:53:29.989Z,0.90
2023-03-28T12:58:30.720Z,0.90
2023-03-28T13:03:31.396Z,0.80
2023-03-28T13:08:32.049Z,0.90
2023-03-28T13:13:32.714Z,0.90
2023-03-28T13:18:33.356Z,0.80
2023-03-28T13:23:34.128Z,0.70
2023-03-28T13:28:34.752Z,0.80
2023-03-28T13:33:35.370Z,0.80
2023-03-28T13:38:36.062Z,0.90
2023-03-28T13:43:36.733Z,0.80
2023-03-28T13:48:37.397Z,0.90
2023-03-28T13:53:47.715Z,0.80
2023-03-28T13:58:39.598Z,1.20
2023-03-28T14:03:42.735Z,1.00
2023-03-28T14:08:40.796Z,0.90
2023-03-28T14:13:40.455Z,0.90
2023-03-28T14:18:41.245Z,0.90
2023-03-28T14:23:41.879Z,0.90
2023-03-28T14:28:42.520Z,1.00
2023-03-28T14:33:47.511Z,0.80
2023-03-28T14:38:43.962Z,0.70
2023-03-28T14:43:44.613Z,0.80
2023-03-28T14:48:45.322Z,0.80
2023-03-28T14:53:45.996Z,0.90
2023-03-28T14:58:46.680Z,0.80
2023-03-28T15:03:47.377Z,0.70
2023-03-28T15:08:48.047Z,0.80
2023-03-28T15:13:48.746Z,0.60
2023-03-28T15:18:49.343Z,0.70
2023-03-28T15:23:50.008Z,0.70
2023-03-28T15:28:50.727Z,0.70
2023-03-28T15:33:51.483Z,0.80
2023-03-28T15:38:52.164Z,1.10
2023-03-28T15:43:52.848Z,0.80
2023-03-28T15:48:53.441Z,1.10
2023-03-28T15:53:54.107Z,1.00
2023-03-28T15:58:54.767Z,1.00
2023-03-28T16:03:55.470Z,1.10
2023-03-28T16:08:56.060Z,1.10
2023-03-28T16:13:56.762Z,1.00
2023-03-28T16:18:57.411Z,1.10
2023-03-28T16:23:58.184Z,1.00
2023-03-28T16:28:58.782Z,1.30
2023-03-28T16:33:59.442Z,1.10
2023-03-28T16:39:00.105Z,1.50
2023-03-28T16:44:00.768Z,1.20
2023-03-28T16:49:01.406Z,1.40
2023-03-28T16:54:02.059Z,1.20
2023-03-28T16:59:02.711Z,1.40
2023-03-28T17:04:03.401Z,1.70
2023-03-28T17:09:04.066Z,2.30
2023-03-28T17:14:04.708Z,2.10
2023-03-28T17:19:05.384Z,2.10
2023-03-28T17:24:06.029Z,1.80
2023-03-28T17:29:07.433Z,1.50
2023-03-28T17:34:07.368Z,2.30
2023-03-28T17:39:08.030Z,2.70
2023-03-28T17:44:08.670Z,2.80
2023-03-28T17:49:09.327Z,3.30
2023-03-28T17:54:09.956Z,4.60
2023-03-28T17:59:10.625Z,4.40
2023-03-28T18:04:11.290Z,4.20
2023-03-28T18:09:11.981Z,4.50
2023-03-28T18:14:12.717Z,4.20
2023-03-28T18:19:13.406Z,4.30
2023-03-28T18:24:14.204Z,3.80
2023-03-28T18:29:14.902Z,4.70
2023-03-28T18:34:15.592Z,4.70
2023-03-28T18:39:16.295Z,4.20
2023-03-28T18:44:24.048Z,3.50
2023-03-28T18:49:17.716Z,3.60
2023-03-28T18:54:18.426Z,4.00
2023-03-28T18:59:19.142Z,4.40
2023-03-28T19:04:20.069Z,4.30
2023-03-28T19:09:20.328Z,4.80
2023-03-28T19:14:21.105Z,4.70
2023-03-28T19:19:21.817Z,4.90
2023-03-28T19:24:22.579Z,3.50
2023-03-28T19:29:23.288Z,3.50
2023-03-28T19:34:24.010Z,3.30
2023-03-28T19:39:24.727Z,3.10
2023-03-28T19:44:25.413Z,3.60
2023-03-28T19:49:26.156Z,2.90
2023-03-28T19:54:26.937Z,3.10
2023-03-28T19:59:27.625Z,2.80
2023-03-28T20:04:28.424Z,3.00
2023-03-28T20:09:29.222Z,2.70
2023-03-28T20:14:29.930Z,2.70
2023-03-28T20:19:30.662Z,2.70
2023-03-28T20:24:31.365Z,2.50
2023-03-28T20:29:32.060Z,3.30
2023-03-28T20:34:32.784Z,2.80
2023-03-28T20:39:33.473Z,3.60
2023-03-28T20:44:34.166Z,3.50
2023-03-28T20:49:34.880Z,12.40
2023-03-28T20:54:35.713Z,3.30
2023-03-28T20:59:36.373Z,3.60
2023-03-28T21:04:37.103Z,3.30
2023-03-28T21:09:37.818Z,3.40
2023-03-28T21:14:38.526Z,3.50
2023-03-28T21:19:39.217Z,3.60
2023-03-28T21:24:39.929Z,3.90
2023-03-28T21:29:40.659Z,3.20
2023-03-28T21:34:41.339Z,2.90
2023-03-28T21:39:42.059Z,3.20
2023-03-28T21:44:42.757Z,3.70
2023-03-28T21:49:43.483Z,3.10
2023-03-28T21:54:44.166Z,3.30
2023-03-28T21:59:46.416Z,3.60
2023-03-28T22:04:45.679Z,3.50
2023-03-28T22:09:46.358Z,3.60
2023-03-28T22:14:47.060Z,3.20
2023-03-28T22:19:47.760Z,3.40
2023-03-28T22:24:48.501Z,2.70
2023-03-28T22:29:49.182Z,3.00
2023-03-28T22:34:49.881Z,4.10
2023-03-28T22:39:50.637Z,4.70
2023-03-28T22:44:51.364Z,4.00
2023-03-28T22:49:52.039Z,3.80
2023-03-28T22:54:52.783Z,3.70
2023-03-28T22:59:53.635Z,3.80
2023-03-28T23:04:54.484Z,3.80
2023-03-28T23:09:55.166Z,4.10
2023-03-28T23:14:55.854Z,3.80
2023-03-28T23:19:56.553Z,3.60
2023-03-28T23:24:57.255Z,3.20
2023-03-28T23:29:57.986Z,3.20
2023-03-28T23:34:58.683Z,3.60
2023-03-28T23:39:59.378Z,3.00
2023-03-28T23:45:00.120Z,3.20
2023-03-28T23:50:00.840Z,3.50
2023-03-28T23:55:01.518Z,3.50
